sensor_id;sensor_type;location;lat;lon;timestamp;P1;durP1;ratioP1;P2;durP2;ratioP2
15748;SDS011;7976;52.526;13.326;2023-07-13T00:02:05;7.72;;;2.40;;
15748;SDS011;7976;52.526;13.326;2023-07-13T00:04:32;9.85;;;2.80;;
15748;SDS011;7976;52.526;13.326;2023-07-13T00:06:59;7.68;;;2.58;;
15748;SDS011;7976;52.526;13.326;2023-07-13T00:09:28;6.05;;;2.25;;
15748;SDS011;7976;52.526;13.326;2023-07-13T00:11:55;8.50;;;2.47;;
15748;SDS011;7976;52.526;13.326;2023-07-13T00:14:23;6.35;;;2.40;;
15748;SDS011;7976;52.526;13.326;2023-07-13T00:16:53;7.63;;;2.60;;
15748;SDS011;7976;52.526;13.326;2023-07-13T00:19:20;8.98;;;2.25;;
15748;SDS011;7976;52.526;13.326;2023-07-13T00:21:47;7.22;;;2.42;;
15748;SDS011;7976;52.526;13.326;2023-07-13T00:24:15;6.97;;;2.72;;
15748;SDS011;7976;52.526;13.326;2023-07-13T00:26:49;7.82;;;2.50;;
15748;SDS011;7976;52.526;13.326;2023-07-13T00:29:17;5.65;;;2.13;;
15748;SDS011;7976;52.526;13.326;2023-07-13T00:31:45;9.07;;;2.67;;
15748;SDS011;7976;52.526;13.326;2023-07-13T00:34:12;7.35;;;2.30;;
15748;SDS011;7976;52.526;13.326;2023-07-13T00:36:39;7.05;;;2.47;;
15748;SDS011;7976;52.526;13.326;2023-07-13T00:39:06;7.20;;;2.50;;
15748;SDS011;7976;52.526;13.326;2023-07-13T00:41:33;8.18;;;2.78;;
15748;SDS011;7976;52.526;13.326;2023-07-13T00:44:04;7.55;;;2.40;;
15748;SDS011;7976;52.526;13.326;2023-07-13T00:46:31;8.25;;;2.53;;
15748;SDS011;7976;52.526;13.326;2023-07-13T00:49:02;7.50;;;2.60;;
15748;SDS011;7976;52.526;13.326;2023-07-13T00:51:34;6.28;;;2.25;;
15748;SDS011;7976;52.526;13.326;2023-07-13T00:54:07;7.43;;;2.85;;
15748;SDS011;7976;52.526;13.326;2023-07-13T00:56:45;8.77;;;2.75;;
15748;SDS011;7976;52.526;13.326;2023-07-13T00:59:17;8.63;;;3.08;;
15748;SDS011;7976;52.526;13.326;2023-07-13T01:01:46;10.40;;;2.95;;
15748;SDS011;7976;52.526;13.326;2023-07-13T01:04:14;7.00;;;2.72;;
15748;SDS011;7976;52.526;13.326;2023-07-13T01:06:41;8.52;;;3.17;;
15748;SDS011;7976;52.526;13.326;2023-07-13T01:09:10;7.72;;;2.75;;
15748;SDS011;7976;52.526;13.326;2023-07-13T01:11:38;9.85;;;2.80;;
15748;SDS011;7976;52.526;13.326;2023-07-13T01:14:06;8.60;;;2.67;;
15748;SDS011;7976;52.526;13.326;2023-07-13T01:16:36;8.13;;;2.63;;
15748;SDS011;7976;52.526;13.326;2023-07-13T01:19:06;9.82;;;3.28;;
15748;SDS011;7976;52.526;13.326;2023-07-13T01:21:43;8.30;;;3.10;;
15748;SDS011;7976;52.526;13.326;2023-07-13T01:24:10;8.38;;;2.90;;
15748;SDS011;7976;52.526;13.326;2023-07-13T01:26:39;9.40;;;3.20;;
15748;SDS011;7976;52.526;13.326;2023-07-13T01:29:07;9.25;;;2.70;;
15748;SDS011;7976;52.526;13.326;2023-07-13T01:31:36;9.43;;;3.10;;
15748;SDS011;7976;52.526;13.326;2023-07-13T01:34:03;7.00;;;2.80;;
15748;SDS011;7976;52.526;13.326;2023-07-13T01:36:30;12.07;;;3.65;;
15748;SDS011;7976;52.526;13.326;2023-07-13T01:38:59;8.60;;;3.10;;
15748;SDS011;7976;52.526;13.326;2023-07-13T01:41:26;8.43;;;3.28;;
15748;SDS011;7976;52.526;13.326;2023-07-13T01:43:53;9.57;;;3.50;;
15748;SDS011;7976;52.526;13.326;2023-07-13T01:46:20;9.10;;;3.00;;
15748;SDS011;7976;52.526;13.326;2023-07-13T01:48:47;8.23;;;2.78;;
15748;SDS011;7976;52.526;13.326;2023-07-13T01:51:15;8.10;;;3.20;;
15748;SDS011;7976;52.526;13.326;2023-07-13T01:53:44;8.50;;;2.92;;
15748;SDS011;7976;52.526;13.326;2023-07-13T01:56:12;8.90;;;2.90;;
15748;SDS011;7976;52.526;13.326;2023-07-13T01:58:39;8.05;;;2.53;;
15748;SDS011;7976;52.526;13.326;2023-07-13T02:01:06;8.60;;;2.88;;
15748;SDS011;7976;52.526;13.326;2023-07-13T02:03:33;8.38;;;2.60;;
15748;SDS011;7976;52.526;13.326;2023-07-13T02:06:00;8.60;;;2.83;;
15748;SDS011;7976;52.526;13.326;2023-07-13T02:08:28;8.45;;;2.50;;
15748;SDS011;7976;52.526;13.326;2023-07-13T02:10:54;7.85;;;2.70;;
15748;SDS011;7976;52.526;13.326;2023-07-13T02:13:23;7.03;;;2.38;;
15748;SDS011;7976;52.526;13.326;2023-07-13T02:15:50;9.77;;;2.88;;
15748;SDS011;7976;52.526;13.326;2023-07-13T02:18:16;8.18;;;2.33;;
15748;SDS011;7976;52.526;13.326;2023-07-13T02:20:43;7.55;;;2.67;;
15748;SDS011;7976;52.526;13.326;2023-07-13T02:23:10;7.65;;;2.50;;
15748;SDS011;7976;52.526;13.326;2023-07-13T02:25:38;8.65;;;2.80;;
15748;SDS011;7976;52.526;13.326;2023-07-13T02:28:05;7.15;;;2.50;;
15748;SDS011;7976;52.526;13.326;2023-07-13T02:30:33;5.95;;;2.33;;
15748;SDS011;7976;52.526;13.326;2023-07-13T02:33:01;7.43;;;2.58;;
15748;SDS011;7976;52.526;13.326;2023-07-13T02:35:28;6.93;;;2.35;;
15748;SDS011;7976;52.526;13.326;2023-07-13T02:37:57;9.18;;;2.85;;
15748;SDS011;7976;52.526;13.326;2023-07-13T02:40:24;7.80;;;2.78;;
15748;SDS011;7976;52.526;13.326;2023-07-13T02:42:51;8.25;;;2.90;;
15748;SDS011;7976;52.526;13.326;2023-07-13T02:45:18;8.07;;;2.90;;
15748;SDS011;7976;52.526;13.326;2023-07-13T02:47:46;8.98;;;2.70;;
15748;SDS011;7976;52.526;13.326;2023-07-13T02:50:13;8.63;;;3.03;;
15748;SDS011;7976;52.526;13.326;2023-07-13T02:52:40;7.95;;;2.80;;
15748;SDS011;7976;52.526;13.326;2023-07-13T02:55:07;7.38;;;2.65;;
15748;SDS011;7976;52.526;13.326;2023-07-13T02:57:35;8.18;;;2.70;;
15748;SDS011;7976;52.526;13.326;2023-07-13T03:00:03;7.03;;;2.63;;
15748;SDS011;7976;52.526;13.326;2023-07-13T03:02:33;6.60;;;2.22;;
15748;SDS011;7976;52.526;13.326;2023-07-13T03:05:02;6.25;;;2.17;;
15748;SDS011;7976;52.526;13.326;2023-07-13T03:07:31;7.53;;;2.45;;
15748;SDS011;7976;52.526;13.326;2023-07-13T03:09:58;6.95;;;2.40;;
15748;SDS011;7976;52.526;13.326;2023-07-13T03:12:33;7.20;;;2.55;;
15748;SDS011;7976;52.526;13.326;2023-07-13T03:15:02;7.57;;;2.70;;
15748;SDS011;7976;52.526;13.326;2023-07-13T03:17:31;7.80;;;2.92;;
15748;SDS011;7976;52.526;13.326;2023-07-13T03:19:58;8.57;;;3.15;;
15748;SDS011;7976;52.526;13.326;2023-07-13T03:22:26;6.40;;;2.60;;
15748;SDS011;7976;52.526;13.326;2023-07-13T03:24:54;10.02;;;2.80;;
15748;SDS011;7976;52.526;13.326;2023-07-13T03:27:21;8.95;;;2.50;;
15748;SDS011;7976;52.526;13.326;2023-07-13T03:29:48;7.50;;;2.50;;
15748;SDS011;7976;52.526;13.326;2023-07-13T03:32:17;8.27;;;2.75;;
15748;SDS011;7976;52.526;13.326;2023-07-13T03:34:43;7.68;;;2.35;;
15748;SDS011;7976;52.526;13.326;2023-07-13T03:37:12;7.97;;;2.55;;
15748;SDS011;7976;52.526;13.326;2023-07-13T03:39:40;7.07;;;2.47;;
15748;SDS011;7976;52.526;13.326;2023-07-13T03:42:08;6.40;;;2.45;;
15748;SDS011;7976;52.526;13.326;2023-07-13T03:44:35;7.65;;;2.70;;
15748;SDS011;7976;52.526;13.326;2023-07-13T03:47:03;8.43;;;2.60;;
15748;SDS011;7976;52.526;13.326;2023-07-13T03:49:31;8.88;;;2.50;;
15748;SDS011;7976;52.526;13.326;2023-07-13T03:51:58;6.35;;;2.42;;
15748;SDS011;7976;52.526;13.326;2023-07-13T03:54:25;10.15;;;2.85;;
15748;SDS011;7976;52.526;13.326;2023-07-13T03:56:53;6.55;;;2.75;;
15748;SDS011;7976;52.526;13.326;2023-07-13T03:59:21;9.40;;;2.92;;
15748;SDS011;7976;52.526;13.326;2023-07-13T04:01:48;9.40;;;3.05;;
15748;SDS011;7976;52.526;13.326;2023-07-13T04:04:15;8.13;;;2.83;;
15748;SDS011;7976;52.526;13.326;2023-07-13T04:06:41;11.32;;;3.17;;
15748;SDS011;7976;52.526;13.326;2023-07-13T04:09:10;8.15;;;2.92;;
15748;SDS011;7976;52.526;13.326;2023-07-13T04:11:37;8.70;;;2.85;;
15748;SDS011;7976;52.526;13.326;2023-07-13T04:14:06;7.63;;;2.90;;
15748;SDS011;7976;52.526;13.326;2023-07-13T04:16:33;8.45;;;2.75;;
15748;SDS011;7976;52.526;13.326;2023-07-13T04:19:00;9.45;;;3.05;;
15748;SDS011;7976;52.526;13.326;2023-07-13T04:21:27;9.35;;;2.90;;
15748;SDS011;7976;52.526;13.326;2023-07-13T04:23:56;9.15;;;2.85;;
15748;SDS011;7976;52.526;13.326;2023-07-13T04:26:24;8.73;;;3.35;;
15748;SDS011;7976;52.526;13.326;2023-07-13T04:28:50;8.10;;;2.63;;
15748;SDS011;7976;52.526;13.326;2023-07-13T04:31:19;9.48;;;2.97;;
15748;SDS011;7976;52.526;13.326;2023-07-13T04:33:46;8.13;;;2.67;;
15748;SDS011;7976;52.526;13.326;2023-07-13T04:36:14;7.38;;;2.78;;
15748;SDS011;7976;52.526;13.326;2023-07-13T04:38:42;7.82;;;3.00;;
15748;SDS011;7976;52.526;13.326;2023-07-13T04:41:09;8.50;;;2.70;;
15748;SDS011;7976;52.526;13.326;2023-07-13T04:43:36;9.77;;;2.80;;
15748;SDS011;7976;52.526;13.326;2023-07-13T04:46:03;6.57;;;2.70;;
15748;SDS011;7976;52.526;13.326;2023-07-13T04:48:34;11.90;;;3.10;;
15748;SDS011;7976;52.526;13.326;2023-07-13T04:51:01;9.68;;;2.90;;
15748;SDS011;7976;52.526;13.326;2023-07-13T04:53:29;9.02;;;2.70;;
15748;SDS011;7976;52.526;13.326;2023-07-13T04:55:57;8.35;;;2.88;;
15748;SDS011;7976;52.526;13.326;2023-07-13T04:58:24;7.72;;;3.17;;
15748;SDS011;7976;52.526;13.326;2023-07-13T05:00:52;9.23;;;3.55;;
15748;SDS011;7976;52.526;13.326;2023-07-13T05:03:19;8.68;;;3.40;;
15748;SDS011;7976;52.526;13.326;2023-07-13T05:05:55;9.23;;;3.10;;
15748;SDS011;7976;52.526;13.326;2023-07-13T05:08:23;8.10;;;3.13;;
15748;SDS011;7976;52.526;13.326;2023-07-13T05:10:51;9.02;;;3.15;;
15748;SDS011;7976;52.526;13.326;2023-07-13T05:13:19;12.65;;;3.63;;
15748;SDS011;7976;52.526;13.326;2023-07-13T05:15:47;9.93;;;3.47;;
15748;SDS011;7976;52.526;13.326;2023-07-13T05:18:23;9.52;;;3.58;;
15748;SDS011;7976;52.526;13.326;2023-07-13T05:20:59;9.30;;;3.35;;
15748;SDS011;7976;52.526;13.326;2023-07-13T05:23:28;9.80;;;3.50;;
15748;SDS011;7976;52.526;13.326;2023-07-13T05:25:55;8.93;;;3.28;;
15748;SDS011;7976;52.526;13.326;2023-07-13T05:28:22;8.45;;;3.15;;
15748;SDS011;7976;52.526;13.326;2023-07-13T05:30:49;8.07;;;2.72;;
15748;SDS011;7976;52.526;13.326;2023-07-13T05:33:16;10.40;;;3.50;;
15748;SDS011;7976;52.526;13.326;2023-07-13T05:35:43;9.45;;;3.20;;
15748;SDS011;7976;52.526;13.326;2023-07-13T05:38:12;8.18;;;3.10;;
15748;SDS011;7976;52.526;13.326;2023-07-13T05:40:39;9.60;;;3.58;;
15748;SDS011;7976;52.526;13.326;2023-07-13T05:43:08;11.68;;;3.40;;
15748;SDS011;7976;52.526;13.326;2023-07-13T05:45:35;9.65;;;2.88;;
15748;SDS011;7976;52.526;13.326;2023-07-13T05:48:02;10.40;;;3.28;;
15748;SDS011;7976;52.526;13.326;2023-07-13T05:50:29;12.60;;;2.95;;
15748;SDS011;7976;52.526;13.326;2023-07-13T05:52:56;9.52;;;2.90;;
15748;SDS011;7976;52.526;13.326;2023-07-13T05:55:25;8.38;;;2.55;;
15748;SDS011;7976;52.526;13.326;2023-07-13T05:57:52;9.80;;;3.20;;
15748;SDS011;7976;52.526;13.326;2023-07-13T06:00:19;12.32;;;3.50;;
15748;SDS011;7976;52.526;13.326;2023-07-13T06:02:46;9.48;;;2.95;;
15748;SDS011;7976;52.526;13.326;2023-07-13T06:05:13;10.73;;;3.10;;
15748;SDS011;7976;52.526;13.326;2023-07-13T06:07:40;7.60;;;2.65;;
15748;SDS011;7976;52.526;13.326;2023-07-13T06:10:07;11.00;;;3.05;;
15748;SDS011;7976;52.526;13.326;2023-07-13T06:12:36;9.43;;;3.20;;
15748;SDS011;7976;52.526;13.326;2023-07-13T06:15:03;9.90;;;3.17;;
15748;SDS011;7976;52.526;13.326;2023-07-13T06:17:32;8.63;;;2.88;;
15748;SDS011;7976;52.526;13.326;2023-07-13T06:19:59;7.20;;;2.88;;
15748;SDS011;7976;52.526;13.326;2023-07-13T06:22:26;8.93;;;2.50;;
15748;SDS011;7976;52.526;13.326;2023-07-13T06:24:53;8.30;;;2.40;;
15748;SDS011;7976;52.526;13.326;2023-07-13T06:27:20;9.55;;;2.63;;
15748;SDS011;7976;52.526;13.326;2023-07-13T06:29:48;10.23;;;3.05;;
15748;SDS011;7976;52.526;13.326;2023-07-13T06:32:15;8.45;;;2.55;;
15748;SDS011;7976;52.526;13.326;2023-07-13T06:34:42;7.43;;;2.83;;
15748;SDS011;7976;52.526;13.326;2023-07-13T06:37:09;8.68;;;2.85;;
15748;SDS011;7976;52.526;13.326;2023-07-13T06:39:36;9.50;;;2.60;;
15748;SDS011;7976;52.526;13.326;2023-07-13T06:42:03;7.63;;;2.47;;
15748;SDS011;7976;52.526;13.326;2023-07-13T06:44:32;9.10;;;2.65;;
15748;SDS011;7976;52.526;13.326;2023-07-13T06:47:00;9.70;;;2.83;;
15748;SDS011;7976;52.526;13.326;2023-07-13T06:49:27;8.07;;;2.33;;
15748;SDS011;7976;52.526;13.326;2023-07-13T06:51:54;8.68;;;2.67;;
15748;SDS011;7976;52.526;13.326;2023-07-13T06:54:20;7.38;;;2.47;;
15748;SDS011;7976;52.526;13.326;2023-07-13T06:56:47;8.02;;;2.42;;
15748;SDS011;7976;52.526;13.326;2023-07-13T06:59:14;8.38;;;2.67;;
15748;SDS011;7976;52.526;13.326;2023-07-13T07:01:41;8.60;;;2.53;;
15748;SDS011;7976;52.526;13.326;2023-07-13T07:04:09;8.77;;;2.65;;
15748;SDS011;7976;52.526;13.326;2023-07-13T07:06:36;8.10;;;2.53;;
15748;SDS011;7976;52.526;13.326;2023-07-13T07:09:03;6.93;;;2.10;;
15748;SDS011;7976;52.526;13.326;2023-07-13T07:11:30;6.90;;;2.05;;
15748;SDS011;7976;52.526;13.326;2023-07-13T07:13:57;9.32;;;2.30;;
15748;SDS011;7976;52.526;13.326;2023-07-13T07:16:24;8.00;;;2.25;;
15748;SDS011;7976;52.526;13.326;2023-07-13T07:18:51;6.55;;;2.20;;
15748;SDS011;7976;52.526;13.326;2023-07-13T07:21:20;8.38;;;2.10;;
15748;SDS011;7976;52.526;13.326;2023-07-13T07:23:48;7.40;;;2.35;;
15748;SDS011;7976;52.526;13.326;2023-07-13T07:26:15;7.88;;;2.40;;
15748;SDS011;7976;52.526;13.326;2023-07-13T07:28:42;7.45;;;2.40;;
15748;SDS011;7976;52.526;13.326;2023-07-13T07:31:09;7.32;;;2.35;;
15748;SDS011;7976;52.526;13.326;2023-07-13T07:33:36;8.38;;;2.35;;
15748;SDS011;7976;52.526;13.326;2023-07-13T07:36:03;6.43;;;1.80;;
15748;SDS011;7976;52.526;13.326;2023-07-13T07:38:32;5.63;;;2.00;;
15748;SDS011;7976;52.526;13.326;2023-07-13T07:41:01;6.70;;;1.70;;
15748;SDS011;7976;52.526;13.326;2023-07-13T07:43:30;5.85;;;1.80;;
15748;SDS011;7976;52.526;13.326;2023-07-13T07:45:57;8.05;;;1.90;;
15748;SDS011;7976;52.526;13.326;2023-07-13T07:48:23;7.45;;;1.98;;
15748;SDS011;7976;52.526;13.326;2023-07-13T07:50:50;5.50;;;1.80;;
15748;SDS011;7976;52.526;13.326;2023-07-13T07:53:17;5.30;;;1.77;;
15748;SDS011;7976;52.526;13.326;2023-07-13T07:55:46;5.15;;;1.70;;
15748;SDS011;7976;52.526;13.326;2023-07-13T07:58:13;7.28;;;2.30;;
15748;SDS011;7976;52.526;13.326;2023-07-13T08:00:40;7.00;;;2.00;;
15748;SDS011;7976;52.526;13.326;2023-07-13T08:03:07;6.18;;;2.00;;
15748;SDS011;7976;52.526;13.326;2023-07-13T08:05:34;8.20;;;2.00;;
15748;SDS011;7976;52.526;13.326;2023-07-13T08:08:02;7.20;;;1.95;;
15748;SDS011;7976;52.526;13.326;2023-07-13T08:10:29;6.32;;;1.65;;
15748;SDS011;7976;52.526;13.326;2023-07-13T08:12:58;7.03;;;2.03;;
15748;SDS011;7976;52.526;13.326;2023-07-13T08:15:25;7.60;;;1.90;;
15748;SDS011;7976;52.526;13.326;2023-07-13T08:17:51;8.55;;;3.03;;
15748;SDS011;7976;52.526;13.326;2023-07-13T08:20:18;8.50;;;2.00;;
15748;SDS011;7976;52.526;13.326;2023-07-13T08:22:45;7.15;;;1.95;;
15748;SDS011;7976;52.526;13.326;2023-07-13T08:25:12;9.05;;;2.30;;
15748;SDS011;7976;52.526;13.326;2023-07-13T08:27:39;4.93;;;1.70;;
15748;SDS011;7976;52.526;13.326;2023-07-13T08:30:08;5.05;;;1.92;;
15748;SDS011;7976;52.526;13.326;2023-07-13T08:32:36;4.45;;;1.70;;
15748;SDS011;7976;52.526;13.326;2023-07-13T08:35:04;9.73;;;2.72;;
15748;SDS011;7976;52.526;13.326;2023-07-13T08:37:32;7.30;;;2.70;;
15748;SDS011;7976;52.526;13.326;2023-07-13T08:39:59;6.07;;;1.90;;
15748;SDS011;7976;52.526;13.326;2023-07-13T08:42:29;6.68;;;1.88;;
15748;SDS011;7976;52.526;13.326;2023-07-13T08:45:06;4.90;;;1.63;;
15748;SDS011;7976;52.526;13.326;2023-07-13T08:47:47;7.28;;;1.90;;
15748;SDS011;7976;52.526;13.326;2023-07-13T08:50:20;5.25;;;1.38;;
15748;SDS011;7976;52.526;13.326;2023-07-13T08:52:59;5.82;;;1.60;;
15748;SDS011;7976;52.526;13.326;2023-07-13T08:55:29;3.30;;;1.40;;
15748;SDS011;7976;52.526;13.326;2023-07-13T08:58:03;5.53;;;1.55;;
15748;SDS011;7976;52.526;13.326;2023-07-13T09:00:40;5.18;;;1.45;;
15748;SDS011;7976;52.526;13.326;2023-07-13T09:03:18;5.55;;;1.58;;
15748;SDS011;7976;52.526;13.326;2023-07-13T09:05:51;5.43;;;1.58;;
15748;SDS011;7976;52.526;13.326;2023-07-13T09:08:31;5.50;;;1.70;;
15748;SDS011;7976;52.526;13.326;2023-07-13T09:11:25;7.50;;;1.95;;
15748;SDS011;7976;52.526;13.326;2023-07-13T09:14:13;6.35;;;1.73;;
15748;SDS011;7976;52.526;13.326;2023-07-13T09:17:04;8.10;;;1.73;;
15748;SDS011;7976;52.526;13.326;2023-07-13T09:19:37;8.10;;;1.60;;
15748;SDS011;7976;52.526;13.326;2023-07-13T09:22:05;5.68;;;1.70;;
15748;SDS011;7976;52.526;13.326;2023-07-13T09:24:49;6.28;;;1.88;;
15748;SDS011;7976;52.526;13.326;2023-07-13T09:27:27;4.53;;;1.48;;
15748;SDS011;7976;52.526;13.326;2023-07-13T09:30:02;5.97;;;1.90;;
15748;SDS011;7976;52.526;13.326;2023-07-13T09:32:50;7.47;;;1.90;;
15748;SDS011;7976;52.526;13.326;2023-07-13T09:35:20;9.48;;;2.42;;
15748;SDS011;7976;52.526;13.326;2023-07-13T09:37:57;9.25;;;2.20;;
15748;SDS011;7976;52.526;13.326;2023-07-13T09:40:30;6.93;;;2.33;;
15748;SDS011;7976;52.526;13.326;2023-07-13T09:43:10;8.10;;;2.03;;
15748;SDS011;7976;52.526;13.326;2023-07-13T09:45:40;8.02;;;2.33;;
15748;SDS011;7976;52.526;13.326;2023-07-13T09:48:13;7.10;;;2.60;;
15748;SDS011;7976;52.526;13.326;2023-07-13T09:50:43;8.63;;;2.53;;
15748;SDS011;7976;52.526;13.326;2023-07-13T09:53:11;5.57;;;2.20;;
15748;SDS011;7976;52.526;13.326;2023-07-13T09:55:41;9.85;;;2.50;;
15748;SDS011;7976;52.526;13.326;2023-07-13T09:58:12;11.32;;;2.90;;
15748;SDS011;7976;52.526;13.326;2023-07-13T10:00:42;8.05;;;2.70;;
15748;SDS011;7976;52.526;13.326;2023-07-13T10:03:22;7.57;;;2.40;;
15748;SDS011;7976;52.526;13.326;2023-07-13T10:05:52;7.10;;;2.53;;
15748;SDS011;7976;52.526;13.326;2023-07-13T10:08:23;7.47;;;2.33;;
15748;SDS011;7976;52.526;13.326;2023-07-13T10:10:54;9.43;;;2.70;;
15748;SDS011;7976;52.526;13.326;2023-07-13T10:13:32;6.75;;;2.63;;
15748;SDS011;7976;52.526;13.326;2023-07-13T10:16:02;7.70;;;2.28;;
15748;SDS011;7976;52.526;13.326;2023-07-13T10:18:38;6.70;;;2.33;;
15748;SDS011;7976;52.526;13.326;2023-07-13T10:21:12;8.05;;;2.55;;
15748;SDS011;7976;52.526;13.326;2023-07-13T10:23:42;8.63;;;2.70;;
15748;SDS011;7976;52.526;13.326;2023-07-13T10:26:13;7.72;;;2.47;;
15748;SDS011;7976;52.526;13.326;2023-07-13T10:28:47;8.50;;;2.50;;
15748;SDS011;7976;52.526;13.326;2023-07-13T10:31:20;8.75;;;2.40;;
15748;SDS011;7976;52.526;13.326;2023-07-13T10:33:50;8.77;;;2.20;;
15748;SDS011;7976;52.526;13.326;2023-07-13T10:36:20;7.05;;;2.55;;
15748;SDS011;7976;52.526;13.326;2023-07-13T10:39:00;7.78;;;2.50;;
15748;SDS011;7976;52.526;13.326;2023-07-13T10:41:32;6.68;;;2.40;;
15748;SDS011;7976;52.526;13.326;2023-07-13T10:44:05;7.07;;;2.60;;
15748;SDS011;7976;52.526;13.326;2023-07-13T10:46:43;7.82;;;2.67;;
15748;SDS011;7976;52.526;13.326;2023-07-13T10:49:12;7.30;;;2.70;;
15748;SDS011;7976;52.526;13.326;2023-07-13T10:51:40;9.43;;;3.03;;
15748;SDS011;7976;52.526;13.326;2023-07-13T10:54:11;6.82;;;2.40;;
15748;SDS011;7976;52.526;13.326;2023-07-13T10:56:48;8.65;;;2.78;;
15748;SDS011;7976;52.526;13.326;2023-07-13T10:59:33;9.45;;;3.00;;
15748;SDS011;7976;52.526;13.326;2023-07-13T11:02:08;8.20;;;2.45;;
15748;SDS011;7976;52.526;13.326;2023-07-13T11:04:48;7.35;;;2.47;;
15748;SDS011;7976;52.526;13.326;2023-07-13T11:07:19;5.65;;;2.35;;
15748;SDS011;7976;52.526;13.326;2023-07-13T11:09:50;7.53;;;2.50;;
15748;SDS011;7976;52.526;13.326;2023-07-13T11:12:26;10.57;;;3.28;;
15748;SDS011;7976;52.526;13.326;2023-07-13T11:15:27;10.13;;;3.22;;
15748;SDS011;7976;52.526;13.326;2023-07-13T11:18:19;10.73;;;2.47;;
15748;SDS011;7976;52.526;13.326;2023-07-13T11:20:51;9.50;;;2.75;;
15748;SDS011;7976;52.526;13.326;2023-07-13T11:23:38;7.70;;;2.55;;
15748;SDS011;7976;52.526;13.326;2023-07-13T11:29:08;9.52;;;2.72;;
15748;SDS011;7976;52.526;13.326;2023-07-13T11:31:51;8.52;;;2.03;;
15748;SDS011;7976;52.526;13.326;2023-07-13T11:34:21;6.53;;;2.05;;
15748;SDS011;7976;52.526;13.326;2023-07-13T11:36:57;5.53;;;2.08;;
15748;SDS011;7976;52.526;13.326;2023-07-13T11:39:27;6.95;;;2.10;;
15748;SDS011;7976;52.526;13.326;2023-07-13T11:41:59;6.75;;;2.10;;
15748;SDS011;7976;52.526;13.326;2023-07-13T11:44:33;8.27;;;2.40;;
15748;SDS011;7976;52.526;13.326;2023-07-13T11:47:07;7.07;;;2.08;;
15748;SDS011;7976;52.526;13.326;2023-07-13T11:49:41;7.28;;;2.00;;
15748;SDS011;7976;52.526;13.326;2023-07-13T11:52:14;7.65;;;2.17;;
15748;SDS011;7976;52.526;13.326;2023-07-13T11:54:46;7.55;;;2.20;;
15748;SDS011;7976;52.526;13.326;2023-07-13T11:57:23;7.22;;;2.25;;
15748;SDS011;7976;52.526;13.326;2023-07-13T11:59:54;9.00;;;2.42;;
15748;SDS011;7976;52.526;13.326;2023-07-13T12:02:24;6.78;;;2.25;;
15748;SDS011;7976;52.526;13.326;2023-07-13T12:04:57;9.40;;;2.30;;
15748;SDS011;7976;52.526;13.326;2023-07-13T12:07:27;6.68;;;2.15;;
15748;SDS011;7976;52.526;13.326;2023-07-13T12:10:00;5.00;;;2.00;;
15748;SDS011;7976;52.526;13.326;2023-07-13T12:12:28;7.13;;;2.33;;
15748;SDS011;7976;52.526;13.326;2023-07-13T12:14:55;7.88;;;2.42;;
15748;SDS011;7976;52.526;13.326;2023-07-13T12:17:23;10.18;;;2.28;;
15748;SDS011;7976;52.526;13.326;2023-07-13T12:19:52;11.13;;;2.20;;
15748;SDS011;7976;52.526;13.326;2023-07-13T12:22:19;7.55;;;2.42;;
15748;SDS011;7976;52.526;13.326;2023-07-13T12:24:49;6.68;;;2.10;;
15748;SDS011;7976;52.526;13.326;2023-07-13T12:27:20;9.05;;;2.38;;
15748;SDS011;7976;52.526;13.326;2023-07-13T12:29:51;9.15;;;2.55;;
15748;SDS011;7976;52.526;13.326;2023-07-13T12:32:25;7.85;;;2.20;;
15748;SDS011;7976;52.526;13.326;2023-07-13T12:34:54;6.60;;;2.05;;
15748;SDS011;7976;52.526;13.326;2023-07-13T12:37:34;7.55;;;2.00;;
15748;SDS011;7976;52.526;13.326;2023-07-13T12:40:03;7.53;;;2.17;;
15748;SDS011;7976;52.526;13.326;2023-07-13T12:42:34;12.18;;;2.25;;
15748;SDS011;7976;52.526;13.326;2023-07-13T12:45:11;9.38;;;2.00;;
15748;SDS011;7976;52.526;13.326;2023-07-13T12:47:47;6.82;;;1.70;;
15748;SDS011;7976;52.526;13.326;2023-07-13T12:50:17;6.35;;;1.90;;
15748;SDS011;7976;52.526;13.326;2023-07-13T12:52:50;6.65;;;2.10;;
15748;SDS011;7976;52.526;13.326;2023-07-13T12:55:20;6.10;;;1.80;;
15748;SDS011;7976;52.526;13.326;2023-07-13T12:57:49;11.68;;;2.65;;
15748;SDS011;7976;52.526;13.326;2023-07-13T13:00:24;6.80;;;2.05;;
15748;SDS011;7976;52.526;13.326;2023-07-13T13:02:58;6.63;;;2.13;;
15748;SDS011;7976;52.526;13.326;2023-07-13T13:05:30;6.90;;;1.80;;
15748;SDS011;7976;52.526;13.326;2023-07-13T13:07:59;4.22;;;1.63;;
15748;SDS011;7976;52.526;13.326;2023-07-13T13:10:27;7.57;;;2.10;;
15748;SDS011;7976;52.526;13.326;2023-07-13T13:12:54;8.40;;;2.05;;
15748;SDS011;7976;52.526;13.326;2023-07-13T13:15:21;7.00;;;2.08;;
15748;SDS011;7976;52.526;13.326;2023-07-13T13:17:48;7.03;;;2.10;;
15748;SDS011;7976;52.526;13.326;2023-07-13T13:20:16;7.57;;;1.92;;
15748;SDS011;7976;52.526;13.326;2023-07-13T13:22:47;6.00;;;1.90;;
15748;SDS011;7976;52.526;13.326;2023-07-13T13:25:14;5.20;;;2.08;;
15748;SDS011;7976;52.526;13.326;2023-07-13T13:27:44;11.85;;;2.63;;
15748;SDS011;7976;52.526;13.326;2023-07-13T13:32:42;7.07;;;1.80;;
15748;SDS011;7976;52.526;13.326;2023-07-13T13:35:12;6.38;;;1.70;;
15748;SDS011;7976;52.526;13.326;2023-07-13T13:37:40;7.50;;;2.10;;
15748;SDS011;7976;52.526;13.326;2023-07-13T13:40:18;6.70;;;1.85;;
15748;SDS011;7976;52.526;13.326;2023-07-13T13:42:49;6.93;;;1.80;;
15748;SDS011;7976;52.526;13.326;2023-07-13T13:45:18;6.07;;;1.73;;
15748;SDS011;7976;52.526;13.326;2023-07-13T13:47:46;8.20;;;1.88;;
15748;SDS011;7976;52.526;13.326;2023-07-13T13:50:14;5.90;;;1.83;;
15748;SDS011;7976;52.526;13.326;2023-07-13T13:52:44;5.60;;;1.67;;
15748;SDS011;7976;52.526;13.326;2023-07-13T13:55:12;7.35;;;1.52;;
15748;SDS011;7976;52.526;13.326;2023-07-13T13:57:40;4.78;;;1.63;;
15748;SDS011;7976;52.526;13.326;2023-07-13T14:00:09;5.55;;;1.80;;
15748;SDS011;7976;52.526;13.326;2023-07-13T14:02:39;4.75;;;1.55;;
15748;SDS011;7976;52.526;13.326;2023-07-13T14:05:12;3.78;;;1.52;;
15748;SDS011;7976;52.526;13.326;2023-07-13T14:07:42;4.55;;;1.70;;
15748;SDS011;7976;52.526;13.326;2023-07-13T14:10:10;8.25;;;1.95;;
15748;SDS011;7976;52.526;13.326;2023-07-13T14:12:41;6.72;;;1.85;;
15748;SDS011;7976;52.526;13.326;2023-07-13T14:15:14;9.48;;;2.03;;
15748;SDS011;7976;52.526;13.326;2023-07-13T14:17:48;6.65;;;1.75;;
15748;SDS011;7976;52.526;13.326;2023-07-13T14:20:16;5.07;;;1.50;;
15748;SDS011;7976;52.526;13.326;2023-07-13T14:22:45;6.65;;;1.90;;
15748;SDS011;7976;52.526;13.326;2023-07-13T14:25:14;7.35;;;1.85;;
15748;SDS011;7976;52.526;13.326;2023-07-13T14:27:42;8.70;;;1.88;;
15748;SDS011;7976;52.526;13.326;2023-07-13T14:30:14;9.85;;;1.80;;
15748;SDS011;7976;52.526;13.326;2023-07-13T14:32:45;4.88;;;1.48;;
15748;SDS011;7976;52.526;13.326;2023-07-13T14:35:14;6.53;;;1.65;;
15748;SDS011;7976;52.526;13.326;2023-07-13T14:37:43;7.80;;;2.47;;
15748;SDS011;7976;52.526;13.326;2023-07-13T14:40:12;6.13;;;1.95;;
15748;SDS011;7976;52.526;13.326;2023-07-13T14:42:40;7.38;;;2.10;;
15748;SDS011;7976;52.526;13.326;2023-07-13T14:45:12;9.02;;;2.03;;
15748;SDS011;7976;52.526;13.326;2023-07-13T14:47:42;8.63;;;2.10;;
15748;SDS011;7976;52.526;13.326;2023-07-13T14:50:12;7.95;;;1.88;;
15748;SDS011;7976;52.526;13.326;2023-07-13T14:52:42;5.22;;;1.90;;
15748;SDS011;7976;52.526;13.326;2023-07-13T14:55:11;5.75;;;1.80;;
15748;SDS011;7976;52.526;13.326;2023-07-13T14:57:39;6.97;;;1.70;;
15748;SDS011;7976;52.526;13.326;2023-07-13T15:00:12;5.15;;;1.50;;
15748;SDS011;7976;52.526;13.326;2023-07-13T15:02:43;4.25;;;1.50;;
15748;SDS011;7976;52.526;13.326;2023-07-13T15:05:17;4.97;;;1.50;;
15748;SDS011;7976;52.526;13.326;2023-07-13T15:07:48;4.47;;;1.40;;
15748;SDS011;7976;52.526;13.326;2023-07-13T15:10:16;5.80;;;1.73;;